createdAt,value
2019-03-11T00:00:13.106Z,100614.80
2019-03-11T00:02:41.603Z,100618.93
2019-03-11T00:05:10.105Z,100606.71
2019-03-11T00:07:38.619Z,100604.17
2019-03-11T00:10:08.566Z,100605.80
2019-03-11T00:12:37.066Z,100614.62
2019-03-11T00:15:08.151Z,100618.83
2019-03-11T00:17:36.619Z,100613.86
2019-03-11T00:20:06.999Z,100605.57
2019-03-11T00:22:35.452Z,100603.04
2019-03-11T00:25:04.252Z,100601.37
2019-03-11T00:27:32.652Z,100609.02
2019-03-11T00:30:01.185Z,100612.82
2019-03-11T00:32:29.665Z,100609.47
2019-03-11T00:34:58.102Z,100606.63
2019-03-11T00:37:26.598Z,100616.46
2019-03-11T00:39:55.007Z,100621.98
2019-03-11T00:42:23.423Z,100613.37
2019-03-11T00:44:51.860Z,100635.53
2019-03-11T00:47:20.279Z,100622.63
2019-03-11T00:49:48.710Z,100627.09
2019-03-11T00:52:17.125Z,100629.07
2019-03-11T00:54:45.520Z,100632.02
2019-03-11T00:57:14.026Z,100629.34
2019-03-11T00:59:42.440Z,100632.12
2019-03-11T01:02:11.074Z,100637.50
2019-03-11T01:04:39.486Z,100634.45
2019-03-11T01:07:07.950Z,100640.23
2019-03-11T01:09:36.370Z,100637.10
2019-03-11T01:12:04.869Z,100637.10
2019-03-11T01:14:35.741Z,100644.25
2019-03-11T01:17:03.430Z,100645.41
2019-03-11T01:19:31.812Z,100645.76
2019-03-11T01:22:00.212Z,100641.50
2019-03-11T01:24:28.638Z,100639.27
2019-03-11T01:26:57.042Z,100647.27
2019-03-11T01:29:25.443Z,100644.69
2019-03-11T01:31:53.847Z,100649.34
2019-03-11T01:34:22.252Z,100642.55
2019-03-11T01:36:50.669Z,100630.41
2019-03-11T01:39:19.074Z,100626.66
2019-03-11T01:41:47.499Z,100619.17
2019-03-11T01:44:15.920Z,100626.77
2019-03-11T01:46:44.318Z,100628.03
2019-03-11T01:49:12.725Z,100625.14
2019-03-11T01:51:41.159Z,100627.67
2019-03-11T01:54:09.557Z,100632.34
2019-03-11T01:56:37.967Z,100628.89
2019-03-11T01:59:06.402Z,100630.56
2019-03-11T02:01:34.810Z,100626.72
2019-03-11T02:04:03.207Z,100624.94
2019-03-11T02:06:31.638Z,100619.82
2019-03-11T02:09:00.121Z,100621.95
2019-03-11T02:11:28.521Z,100618.01
2019-03-11T02:13:56.975Z,100609.64
2019-03-11T02:16:25.400Z,100599.10
2019-03-11T02:18:53.795Z,100603.30
2019-03-11T02:21:22.223Z,100609.69
2019-03-11T02:23:50.631Z,100604.17
2019-03-11T02:26:19.030Z,100623.56
2019-03-11T02:28:47.543Z,100612.17
2019-03-11T02:31:15.945Z,100605.84
2019-03-11T02:33:44.340Z,100609.64
2019-03-11T02:36:12.905Z,100608.38
2019-03-11T02:38:41.311Z,100603.63
2019-03-11T02:41:09.705Z,100599.77
2019-03-11T02:43:38.137Z,100609.91
2019-03-11T02:46:06.514Z,100598.45
2019-03-11T02:48:34.995Z,100624.64
2019-03-11T02:51:03.484Z,100599.72
2019-03-11T02:53:31.895Z,100609.23
2019-03-11T02:56:00.314Z,100616.67
2019-03-11T02:58:28.749Z,100615.72
2019-03-11T03:00:58.854Z,100614.00
2019-03-11T03:03:41.158Z,100606.41
2019-03-11T03:06:14.265Z,100593.64
2019-03-11T03:08:42.664Z,100586.41
2019-03-11T03:11:11.123Z,100582.50
2019-03-11T03:13:39.527Z,100588.38
2019-03-11T03:16:07.950Z,100583.30
2019-03-11T03:18:36.422Z,100595.16
2019-03-11T03:21:04.910Z,100582.84
2019-03-11T03:23:33.318Z,100584.88
2019-03-11T03:26:01.727Z,100590.34
2019-03-11T03:28:30.165Z,100595.40
2019-03-11T03:30:58.622Z,100592.41
2019-03-11T03:33:27.090Z,100590.69
2019-03-11T03:35:55.475Z,100591.46
2019-03-11T03:38:30.545Z,100588.42
2019-03-11T03:40:54.049Z,100593.94
2019-03-11T03:43:22.479Z,100583.87
2019-03-11T03:45:50.865Z,100583.47
2019-03-11T03:48:19.462Z,100592.86
2019-03-11T03:50:47.889Z,100588.83
2019-03-11T03:53:16.380Z,100589.28
2019-03-11T03:55:44.771Z,100593.59
2019-03-11T03:58:13.248Z,100591.92
2019-03-11T04:00:41.650Z,100599.57
2019-03-11T04:03:10.104Z,100602.61
2019-03-11T04:05:38.506Z,100608.13
2019-03-11T04:08:06.872Z,100606.14
2019-03-11T04:10:35.346Z,100614.55
2019-03-11T04:13:03.896Z,100616.27
2019-03-11T04:15:32.303Z,100612.33
2019-03-11T04:18:00.715Z,100614.81
2019-03-11T04:20:29.316Z,100605.39
2019-03-11T04:22:59.071Z,100614.95
2019-03-11T04:25:28.996Z,100612.31
2019-03-11T04:27:57.789Z,100609.27
2019-03-11T04:30:27.541Z,100611.30
2019-03-11T04:32:55.945Z,100609.98
2019-03-11T04:35:24.394Z,100615.85
2019-03-11T04:37:52.776Z,100612.57
2019-03-11T04:40:21.285Z,100629.56
2019-03-11T04:42:49.698Z,100648.61
2019-03-11T04:45:18.591Z,100636.57
2019-03-11T04:47:47.127Z,100644.16
2019-03-11T04:50:20.464Z,100642.55
2019-03-11T04:52:49.019Z,100656.82
2019-03-11T04:55:17.979Z,100660.16
2019-03-11T04:57:54.387Z,100652.45
2019-03-11T05:00:30.664Z,100660.14
2019-03-11T05:02:59.217Z,100657.63
2019-03-11T05:05:27.754Z,100654.37
2019-03-11T05:07:56.152Z,100647.45
2019-03-11T05:10:24.563Z,100643.59
2019-03-11T05:12:53.032Z,100635.38
2019-03-11T05:15:21.529Z,100649.17
2019-03-11T05:17:49.920Z,100642.91
2019-03-11T05:20:18.564Z,100651.70
2019-03-11T05:22:47.126Z,100654.63
2019-03-11T05:25:15.845Z,100656.70
2019-03-11T05:27:44.422Z,100662.16
2019-03-11T05:30:17.725Z,100666.41
2019-03-11T05:32:46.188Z,100666.88
2019-03-11T05:35:14.678Z,100676.65
2019-03-11T05:37:43.113Z,100672.80
2019-03-11T05:40:19.638Z,100670.78
2019-03-11T05:42:48.167Z,100673.78
2019-03-11T05:45:20.617Z,100678.48
2019-03-11T05:47:49.187Z,100687.45
2019-03-11T05:50:20.356Z,100682.52
2019-03-11T05:52:48.841Z,100680.48
2019-03-11T05:55:17.439Z,100680.59
2019-03-11T05:57:45.857Z,100671.40
2019-03-11T06:00:23.436Z,100676.40
2019-03-11T06:02:51.863Z,100675.13
2019-03-11T06:05:20.268Z,100670.42
2019-03-11T06:07:48.761Z,100679.59
2019-03-11T06:10:17.294Z,100684.47
2019-03-11T06:12:45.770Z,100687.69
2019-03-11T06:15:15.336Z,100687.52
2019-03-11T06:17:43.922Z,100686.84
2019-03-11T06:20:18.116Z,100704.94
2019-03-11T06:22:46.518Z,100702.39
2019-03-11T06:25:15.828Z,100692.75
2019-03-11T06:27:44.241Z,100690.91
2019-03-11T06:30:12.944Z,100711.13
2019-03-11T06:32:41.404Z,100695.03
2019-03-11T06:35:10.069Z,100706.06
2019-03-11T06:37:38.511Z,100717.38
2019-03-11T06:40:09.519Z,100717.78
2019-03-11T06:42:38.044Z,100710.81
2019-03-11T06:45:14.039Z,100724.70
2019-03-11T06:47:42.560Z,100723.97
2019-03-11T06:50:13.068Z,100733.22
2019-03-11T06:52:41.624Z,100736.36
2019-03-11T06:55:11.499Z,100751.36
2019-03-11T06:57:40.056Z,100759.44
2019-03-11T07:00:16.544Z,100771.13
2019-03-11T07:02:45.400Z,100768.11
2019-03-11T07:05:19.774Z,100756.41
2019-03-11T07:07:44.178Z,100767.64
2019-03-11T07:10:16.506Z,100758.64
2019-03-11T07:12:45.120Z,100770.41
2019-03-11T07:15:14.972Z,100776.31
2019-03-11T07:17:43.453Z,100778.84
2019-03-11T07:20:19.330Z,100787.41
2019-03-11T07:22:47.816Z,100783.56
2019-03-11T07:25:16.300Z,100786.13
2019-03-11T07:27:44.705Z,100787.98
2019-03-11T07:30:18.137Z,100785.62
2019-03-11T07:32:46.711Z,100792.56
2019-03-11T07:35:15.268Z,100797.22
2019-03-11T07:37:43.752Z,100781.62
2019-03-11T07:40:16.088Z,100784.34
2019-03-11T07:42:44.641Z,100789.99
2019-03-11T07:45:14.703Z,100789.02
2019-03-11T07:47:43.263Z,100787.77
2019-03-11T07:50:13.122Z,100792.02
2019-03-11T07:52:41.542Z,100795.13
2019-03-11T07:55:11.400Z,100787.55
2019-03-11T07:57:39.799Z,100793.33
2019-03-11T08:00:14.008Z,100795.74
2019-03-11T08:02:42.408Z,100807.38
2019-03-11T08:05:11.046Z,100804.38
2019-03-11T08:07:39.553Z,100797.13
2019-03-11T08:10:13.175Z,100814.09
2019-03-11T08:12:41.569Z,100823.61
2019-03-11T08:15:12.949Z,100832.84
2019-03-11T08:17:41.551Z,100844.08
2019-03-11T08:20:11.910Z,100836.56
2019-03-11T08:22:40.408Z,100842.16
2019-03-11T08:25:15.738Z,100835.50
2019-03-11T08:27:44.287Z,100846.70
2019-03-11T08:30:17.635Z,100850.03
2019-03-11T08:32:46.254Z,100853.82
2019-03-11T08:35:14.701Z,100855.41
2019-03-11T08:37:43.162Z,100859.06
2019-03-11T08:40:19.053Z,100864.61
2019-03-11T08:42:47.709Z,100862.42
2019-03-11T08:45:17.390Z,100866.94
2019-03-11T08:47:45.951Z,100866.59
2019-03-11T08:50:16.258Z,100868.39
2019-03-11T08:52:44.810Z,100880.63
2019-03-11T08:55:13.781Z,100881.56
2019-03-11T08:57:42.335Z,100883.45
2019-03-11T09:00:16.756Z,100876.12
2019-03-11T09:02:45.222Z,100873.38
2019-03-11T09:05:13.769Z,100877.30
2019-03-11T09:07:42.264Z,100889.09
2019-03-11T09:10:15.676Z,100887.89
2019-03-11T09:12:44.271Z,100886.81
2019-03-11T09:15:14.614Z,100888.48
2019-03-11T09:17:43.108Z,100887.83
2019-03-11T09:20:15.450Z,100894.03
2019-03-11T09:22:43.981Z,100900.81
2019-03-11T09:25:15.439Z,100904.61
2019-03-11T09:27:43.955Z,100900.36
2019-03-11T09:30:15.176Z,100908.88
2019-03-11T09:32:43.659Z,100904.41
2019-03-11T09:35:12.635Z,100912.12
2019-03-11T09:37:41.112Z,100914.59
2019-03-11T09:40:20.730Z,100915.30
2019-03-11T09:42:49.203Z,100912.89
2019-03-11T09:45:18.750Z,100909.97
2019-03-11T09:47:47.399Z,100917.31
2019-03-11T09:50:16.429Z,100948.03
2019-03-11T09:52:45.023Z,100932.50
2019-03-11T09:55:15.520Z,100922.09
2019-03-11T09:57:44.051Z,100931.27
2019-03-11T10:00:20.851Z,100938.86
2019-03-11T10:02:52.775Z,100938.22
2019-03-11T10:05:19.558Z,100934.72
2019-03-11T10:07:47.992Z,100938.58
2019-03-11T10:10:18.334Z,100945.03
2019-03-11T10:12:46.810Z,100940.06
2019-03-11T10:15:17.374Z,100963.11
2019-03-11T10:17:48.698Z,100938.58
2019-03-11T10:20:18.030Z,100953.55
2019-03-11T10:22:46.672Z,100945.59
2019-03-11T10:25:16.533Z,100947.72
2019-03-11T10:27:45.189Z,100951.69
2019-03-11T10:30:16.412Z,100945.47
2019-03-11T10:32:44.889Z,100934.03
2019-03-11T10:35:30.678Z,100944.31
2019-03-11T10:37:46.516Z,100949.52
2019-03-11T10:40:17.511Z,100940.40
2019-03-11T10:42:46.053Z,100946.98
2019-03-11T10:45:15.847Z,100948.52
2019-03-11T10:47:44.289Z,100932.04
2019-03-11T10:50:15.284Z,100935.36
2019-03-11T10:52:43.810Z,100945.45
2019-03-11T10:55:14.694Z,100946.82
2019-03-11T10:57:43.341Z,100939.97
2019-03-11T11:00:21.343Z,100950.16
2019-03-11T11:02:49.877Z,100944.83
2019-03-11T11:05:18.410Z,100947.47
2019-03-11T11:07:46.845Z,100965.33
2019-03-11T11:10:16.488Z,100953.70
2019-03-11T11:12:44.977Z,100963.85
2019-03-11T11:15:32.680Z,100965.94
2019-03-11T11:18:01.168Z,100972.23
2019-03-11T11:20:29.652Z,100971.58
2019-03-11T11:22:58.113Z,100972.95
2019-03-11T11:25:30.427Z,100975.92
2019-03-11T11:27:58.969Z,100981.25
2019-03-11T11:30:28.885Z,100983.84
2019-03-11T11:32:57.371Z,100976.37
2019-03-11T11:35:25.900Z,100985.59
2019-03-11T11:37:54.459Z,100999.82
2019-03-11T11:40:30.339Z,100992.00
2019-03-11T11:42:58.769Z,101001.45
2019-03-11T11:45:31.428Z,100999.73
2019-03-11T11:47:59.924Z,101004.95
2019-03-11T11:50:28.586Z,101011.86
2019-03-11T11:52:56.983Z,101002.28
2019-03-11T11:55:25.555Z,100996.91
2019-03-11T11:57:54.148Z,101004.41
2019-03-11T12:00:25.854Z,101020.30
2019-03-11T12:02:54.398Z,101011.35
2019-03-11T12:05:22.959Z,101020.80
2019-03-11T12:07:51.798Z,101012.77
2019-03-11T12:10:25.977Z,101012.72
2019-03-11T12:12:54.476Z,101035.20
2019-03-11T12:15:22.986Z,101021.20
2019-03-11T12:17:51.527Z,101020.94
2019-03-11T12:20:22.643Z,101019.03
2019-03-11T12:22:51.312Z,101032.28
2019-03-11T12:25:19.777Z,101022.93
2019-03-11T12:27:53.739Z,101016.20
2019-03-11T12:30:31.938Z,101023.11
2019-03-11T12:33:00.444Z,101023.88
2019-03-11T12:35:29.003Z,101017.27
2019-03-11T12:37:57.739Z,101032.80
2019-03-11T12:40:26.439Z,101039.38
2019-03-11T12:42:55.279Z,101038.14
2019-03-11T12:45:25.663Z,101047.91
2019-03-11T12:47:54.268Z,101046.38
2019-03-11T12:50:25.722Z,101061.30
2019-03-11T12:52:54.171Z,101056.22
2019-03-11T12:55:22.619Z,101066.12
2019-03-11T12:57:51.198Z,101066.22
2019-03-11T13:00:20.740Z,101070.80
2019-03-11T13:02:49.409Z,101086.93
2019-03-11T13:05:18.141Z,101091.47
2019-03-11T13:07:47.140Z,101087.74
2019-03-11T13:10:25.984Z,101087.72
2019-03-11T13:12:54.475Z,101080.34
2019-03-11T13:15:23.033Z,101104.89
2019-03-11T13:17:51.561Z,101093.23
2019-03-11T13:20:29.168Z,101088.89
2019-03-11T13:22:57.635Z,101107.45
2019-03-11T13:25:26.052Z,101133.73
2019-03-11T13:27:54.519Z,101109.33
2019-03-11T13:30:23.080Z,101112.86
2019-03-11T13:32:51.546Z,101121.48
2019-03-11T13:35:19.986Z,101125.37
2019-03-11T13:37:48.514Z,101114.83
2019-03-11T13:40:17.378Z,101148.02
2019-03-11T13:42:45.878Z,101153.27
2019-03-11T13:45:16.542Z,101150.99
2019-03-11T13:47:45.041Z,101167.42
2019-03-11T13:50:15.173Z,101156.58
2019-03-11T13:52:43.798Z,101140.70
2019-03-11T13:55:18.394Z,101124.91
2019-03-11T13:57:46.946Z,101148.50
2019-03-11T14:00:18.326Z,101140.92
2019-03-11T14:02:46.991Z,101153.62
2019-03-11T14:05:15.556Z,101149.56
2019-03-11T14:07:44.065Z,101161.30
2019-03-11T14:10:13.787Z,101179.03
2019-03-11T14:12:42.278Z,101151.66
2019-03-11T14:15:16.620Z,101153.56
2019-03-11T14:17:45.169Z,101156.62
2019-03-11T14:20:14.920Z,101161.16
2019-03-11T14:22:43.727Z,101174.92
2019-03-11T14:25:13.208Z,101164.52
2019-03-11T14:27:41.675Z,101161.61
2019-03-11T14:30:14.802Z,101171.97
2019-03-11T14:32:43.207Z,101178.43
2019-03-11T14:35:12.669Z,101172.88
2019-03-11T14:37:41.227Z,101173.25
2019-03-11T14:40:12.398Z,101201.65
2019-03-11T14:42:40.821Z,101204.80
2019-03-11T14:45:23.043Z,101200.81
2019-03-11T14:47:51.510Z,101192.85
2019-03-11T14:50:20.059Z,101224.95
2019-03-11T14:52:48.643Z,101190.39
2019-03-11T14:55:17.222Z,101189.80
2019-03-11T14:57:45.720Z,101199.08
2019-03-11T15:00:18.817Z,101205.35
2019-03-11T15:02:47.404Z,101207.58
2019-03-11T15:05:17.886Z,101200.94
2019-03-11T15:07:47.007Z,101211.40
2019-03-11T15:10:16.851Z,101201.48
2019-03-11T15:12:45.378Z,101217.21
2019-03-11T15:15:16.188Z,101209.13
2019-03-11T15:17:44.776Z,101218.98
2019-03-11T15:20:14.627Z,101220.13
2019-03-11T15:22:43.221Z,101218.45
2019-03-11T15:25:13.408Z,101218.62
2019-03-11T15:27:42.471Z,101244.80
2019-03-11T15:30:18.903Z,101236.87
2019-03-11T15:32:47.488Z,101240.52
2019-03-11T15:35:16.082Z,101255.44
2019-03-11T15:37:44.568Z,101272.95
2019-03-11T15:40:14.601Z,101262.84
2019-03-11T15:42:43.247Z,101257.93
2019-03-11T15:45:16.462Z,101243.59
2019-03-11T15:47:45.022Z,101257.12
2019-03-11T15:50:19.459Z,101245.27
2019-03-11T15:52:47.974Z,101236.84
2019-03-11T15:55:17.544Z,101244.98
2019-03-11T15:57:46.032Z,101265.53
2019-03-11T16:00:20.239Z,101252.06
2019-03-11T16:02:48.741Z,101265.46
2019-03-11T16:05:19.977Z,101235.87
2019-03-11T16:07:48.958Z,101248.64
2019-03-11T16:10:17.631Z,101265.03
2019-03-11T16:12:46.181Z,101257.09
2019-03-11T16:15:15.624Z,101257.28
2019-03-11T16:17:44.212Z,101255.09
2019-03-11T16:20:15.674Z,101254.05
2019-03-11T16:22:44.238Z,101252.15
2019-03-11T16:25:12.811Z,101258.81
2019-03-11T16:27:41.237Z,101267.67
2019-03-11T16:30:12.711Z,101277.60
2019-03-11T16:32:57.256Z,101276.33
2019-03-11T16:35:11.427Z,101276.50
2019-03-11T16:37:39.891Z,101259.14
2019-03-11T16:40:11.296Z,101287.09
2019-03-11T16:42:39.722Z,101291.16
2019-03-11T16:45:13.334Z,101289.08
2019-03-11T16:47:41.898Z,101322.16
2019-03-11T16:50:23.943Z,101305.27
2019-03-11T16:52:52.709Z,101309.39
2019-03-11T16:55:40.337Z,101351.22
2019-03-11T16:58:08.771Z,101309.33
2019-03-11T17:00:39.072Z,101317.27
2019-03-11T17:03:07.836Z,101374.98
2019-03-11T17:05:36.318Z,101413.16
2019-03-11T17:08:04.987Z,101315.64
2019-03-11T17:10:33.584Z,101343.91
2019-03-11T17:13:02.139Z,101339.52
2019-03-11T17:15:30.682Z,101372.27
2019-03-11T17:17:59.149Z,101353.64
2019-03-11T17:20:27.586Z,101379.06
2019-03-11T17:22:56.119Z,101365.89
2019-03-11T17:25:24.631Z,101381.95
2019-03-11T17:27:53.191Z,101376.70
2019-03-11T17:30:26.038Z,101406.70
2019-03-11T17:32:54.648Z,101397.86
2019-03-11T17:35:23.128Z,101386.12
2019-03-11T17:37:51.627Z,101412.36
2019-03-11T17:40:21.470Z,101411.58
2019-03-11T17:42:50.303Z,101416.98
2019-03-11T17:45:19.086Z,101406.81
2019-03-11T17:47:47.665Z,101440.33
2019-03-11T17:50:18.274Z,101435.30
2019-03-11T17:52:47.016Z,101449.70
2019-03-11T17:55:17.631Z,101474.31
2019-03-11T17:57:46.375Z,101465.83
2019-03-11T18:00:19.580Z,101478.54
2019-03-11T18:02:48.100Z,101489.40
2019-03-11T18:05:17.223Z,101481.19
2019-03-11T18:07:45.756Z,101475.14
2019-03-11T18:10:14.410Z,101495.48
2019-03-11T18:12:42.849Z,101500.42
2019-03-11T18:15:13.120Z,101498.34
2019-03-11T18:17:41.727Z,101497.87
2019-03-11T18:20:18.230Z,101522.03
2019-03-11T18:22:46.872Z,101519.31
2019-03-11T18:25:17.732Z,101518.37
2019-03-11T18:27:46.239Z,101513.76
2019-03-11T18:30:23.181Z,101532.02
2019-03-11T18:32:51.724Z,101541.50
2019-03-11T18:35:20.262Z,101537.17
2019-03-11T18:37:48.698Z,101529.81
2019-03-11T18:40:18.405Z,101533.23
2019-03-11T18:42:47.048Z,101548.48
2019-03-11T18:45:16.496Z,101542.19
2019-03-11T18:47:45.054Z,101559.36
2019-03-11T18:50:21.913Z,101564.55
2019-03-11T18:52:50.490Z,101565.31
2019-03-11T18:55:19.066Z,101552.14
2019-03-11T18:57:47.696Z,101578.72
2019-03-11T19:00:21.450Z,101576.98
2019-03-11T19:02:50.069Z,101611.39
2019-03-11T19:05:20.054Z,101624.20
2019-03-11T19:07:48.528Z,101599.11
2019-03-11T19:10:17.305Z,101613.25
2019-03-11T19:12:45.838Z,101607.11
2019-03-11T19:15:19.536Z,101620.06
2019-03-11T19:17:48.125Z,101602.36
2019-03-11T19:20:19.062Z,101614.02
2019-03-11T19:22:47.697Z,101608.06
2019-03-11T19:25:16.495Z,101613.95
2019-03-11T19:27:45.042Z,101614.48
2019-03-11T19:30:16.459Z,101617.42
2019-03-11T19:32:44.947Z,101619.42
2019-03-11T19:35:13.514Z,101616.95
2019-03-11T19:37:42.008Z,101614.88
2019-03-11T19:40:13.028Z,101621.80
2019-03-11T19:42:41.621Z,101625.02
2019-03-11T19:45:12.057Z,101634.01
2019-03-11T19:47:40.602Z,101629.94
2019-03-11T19:50:11.670Z,101644.64
2019-03-11T19:52:40.289Z,101649.59
2019-03-11T19:55:08.916Z,101652.80
2019-03-11T19:57:37.342Z,101659.62
2019-03-11T20:00:08.814Z,101664.63
2019-03-11T20:02:37.251Z,101672.55
2019-03-11T20:05:08.527Z,101650.89
2019-03-11T20:07:37.073Z,101659.05
2019-03-11T20:10:08.213Z,101674.16
2019-03-11T20:12:36.708Z,101664.53
2019-03-11T20:15:08.357Z,101677.64
2019-03-11T20:17:37.088Z,101663.73
2019-03-11T20:20:14.198Z,101684.72
2019-03-11T20:22:42.725Z,101711.07
2019-03-11T20:25:26.097Z,101691.95
2019-03-11T20:27:54.656Z,101696.05
2019-03-11T20:30:24.147Z,101701.14
2019-03-11T20:32:52.713Z,101691.08
2019-03-11T20:35:21.256Z,101701.23
2019-03-11T20:37:49.833Z,101695.05
2019-03-11T20:40:18.459Z,101711.97
2019-03-11T20:42:47.049Z,101704.20
2019-03-11T20:45:17.926Z,101703.20
2019-03-11T20:47:46.455Z,101707.01
2019-03-11T20:50:16.100Z,101708.94
2019-03-11T20:52:44.642Z,101716.25
2019-03-11T20:55:14.848Z,101716.98
2019-03-11T20:57:43.388Z,101721.52
2019-03-11T21:00:25.812Z,101729.00
2019-03-11T21:02:54.477Z,101725.92
2019-03-11T21:05:31.434Z,101737.50
2019-03-11T21:07:59.866Z,101736.41
2019-03-11T21:10:28.388Z,101726.84
2019-03-11T21:12:56.892Z,101738.27
2019-03-11T21:15:25.561Z,101742.41
2019-03-11T21:17:53.978Z,101734.21
2019-03-11T21:20:22.459Z,101743.75
2019-03-11T21:22:50.909Z,101739.94
2019-03-11T21:25:22.531Z,101742.73
2019-03-11T21:27:51.207Z,101748.46
2019-03-11T21:30:24.973Z,101759.41
2019-03-11T21:32:53.657Z,101747.98
2019-03-11T21:35:22.356Z,101752.41
2019-03-11T21:37:51.032Z,101749.33
2019-03-11T21:40:23.648Z,101753.06
2019-03-11T21:42:52.357Z,101751.72
2019-03-11T21:45:32.911Z,101765.13
2019-03-11T21:47:51.387Z,101758.64
2019-03-11T21:50:24.094Z,101763.17
2019-03-11T21:52:52.618Z,101759.25
2019-03-11T21:55:21.124Z,101762.59
2019-03-11T21:57:49.618Z,101768.70
2019-03-11T22:00:32.915Z,101770.22
2019-03-11T22:02:52.756Z,101768.48
2019-03-11T22:05:21.499Z,101777.36
2019-03-11T22:07:49.938Z,101774.27
2019-03-11T22:10:18.877Z,101776.88
2019-03-11T22:12:47.355Z,101780.14
2019-03-11T22:15:21.446Z,101782.09
2019-03-11T22:17:49.867Z,101780.34
2019-03-11T22:20:18.739Z,101784.95
2019-03-11T22:22:47.252Z,101786.53
2019-03-11T22:25:16.876Z,101786.31
2019-03-11T22:27:45.346Z,101784.09
2019-03-11T22:30:24.361Z,101796.70
2019-03-11T22:32:53.049Z,101792.42
2019-03-11T22:35:21.517Z,101797.56
2019-03-11T22:37:51.797Z,101784.34
2019-03-11T22:40:20.665Z,101789.80
2019-03-11T22:42:49.131Z,101794.06
2019-03-11T22:45:23.396Z,101796.68
2019-03-11T22:47:52.468Z,101789.55
2019-03-11T22:50:21.405Z,101799.53
2019-03-11T22:52:50.141Z,101797.00
2019-03-11T22:55:19.958Z,101781.12
2019-03-11T22:57:48.867Z,101788.09
2019-03-11T23:00:26.669Z,101791.27
2019-03-11T23:02:55.192Z,101785.09
2019-03-11T23:05:23.680Z,101789.84
2019-03-11T23:07:52.090Z,101778.67
2019-03-11T23:10:20.501Z,101795.98
2019-03-11T23:12:48.918Z,101787.66
2019-03-11T23:15:17.342Z,101793.48
2019-03-11T23:17:45.744Z,101798.93
2019-03-11T23:20:14.532Z,101794.38
2019-03-11T23:22:42.951Z,101796.75
2019-03-11T23:25:11.439Z,101795.55
2019-03-11T23:27:39.857Z,101789.64
2019-03-11T23:30:15.277Z,101796.34
2019-03-11T23:32:43.687Z,101789.37
2019-03-11T23:35:12.339Z,101783.04
2019-03-11T23:37:40.753Z,101778.53
2019-03-11T23:40:10.139Z,101782.02
2019-03-11T23:42:38.784Z,101783.77
2019-03-11T23:45:09.450Z,101777.44
2019-03-11T23:47:37.955Z,101781.16
2019-03-11T23:50:11.480Z,101771.34
2019-03-11T23:52:39.961Z,101771.73
2019-03-11T23:55:10.307Z,101777.19
2019-03-11T23:57:38.806Z,101774.18
